createdAt,value
2018-10-17T00:00:58.888Z,20.43
2018-10-17T00:03:27.607Z,21.47
2018-10-17T00:05:56.393Z,21.03
2018-10-17T00:08:25.093Z,25.73
2018-10-17T00:10:53.839Z,27.27
2018-10-17T00:13:22.569Z,25.23
2018-10-17T00:15:51.319Z,23.33
2018-10-17T00:18:20.019Z,25.83
2018-10-17T00:20:48.729Z,23.43
2018-10-17T00:23:17.501Z,22.63
2018-10-17T00:25:46.179Z,22.57
2018-10-17T00:28:14.859Z,24.10
2018-10-17T00:30:43.604Z,17.30
2018-10-17T00:33:12.306Z,18.93
2018-10-17T00:35:41.001Z,17.87
2018-10-17T00:38:09.752Z,22.80
2018-10-17T00:40:38.492Z,25.47
2018-10-17T00:43:07.213Z,22.67
2018-10-17T00:45:35.882Z,30.03
2018-10-17T00:48:04.606Z,27.17
2018-10-17T00:50:33.357Z,25.27
2018-10-17T00:53:02.078Z,25.53
2018-10-17T00:55:30.728Z,25.67
2018-10-17T00:57:59.474Z,25.30
2018-10-17T01:00:28.187Z,24.00
2018-10-17T01:02:56.872Z,24.97
2018-10-17T01:05:25.648Z,27.13
2018-10-17T01:07:54.384Z,26.20
2018-10-17T01:10:23.135Z,35.07
2018-10-17T01:12:51.882Z,28.63
2018-10-17T01:15:20.628Z,26.57
2018-10-17T01:17:49.359Z,25.87
2018-10-17T01:20:18.009Z,26.57
2018-10-17T01:22:46.688Z,27.47
2018-10-17T01:25:15.456Z,26.07
2018-10-17T01:27:44.098Z,26.40
2018-10-17T01:30:12.840Z,25.30
2018-10-17T01:32:41.493Z,25.93
2018-10-17T01:35:10.268Z,24.70
2018-10-17T01:37:38.933Z,23.60
2018-10-17T01:40:08.561Z,24.03
2018-10-17T01:42:37.397Z,24.10
2018-10-17T01:45:07.458Z,24.70
2018-10-17T01:47:36.256Z,27.97
2018-10-17T01:50:05.568Z,35.60
2018-10-17T01:52:34.244Z,30.37
2018-10-17T01:55:02.994Z,23.50
2018-10-17T01:57:31.687Z,23.93
2018-10-17T02:00:00.415Z,23.03
2018-10-17T02:02:29.212Z,22.07
2018-10-17T02:04:57.914Z,21.80
2018-10-17T02:07:26.686Z,23.03
2018-10-17T02:09:55.342Z,24.00
2018-10-17T02:12:24.047Z,23.43
2018-10-17T02:14:52.805Z,21.17
2018-10-17T02:17:21.546Z,22.27
2018-10-17T02:19:50.279Z,22.53
2018-10-17T02:22:19.006Z,22.70
2018-10-17T02:24:47.718Z,35.00
2018-10-17T02:27:16.456Z,40.43
2018-10-17T02:29:45.125Z,32.17
2018-10-17T02:32:13.861Z,29.60
2018-10-17T02:34:47.728Z,31.83
2018-10-17T02:37:16.477Z,31.07
2018-10-17T02:39:45.275Z,27.57
2018-10-17T02:42:13.976Z,28.20
2018-10-17T02:44:42.711Z,26.47
2018-10-17T02:47:11.444Z,27.30
2018-10-17T02:49:40.150Z,24.50
2018-10-17T02:52:08.822Z,25.13
2018-10-17T02:54:37.525Z,26.77
2018-10-17T02:57:06.206Z,28.77
2018-10-17T02:59:34.944Z,29.10
2018-10-17T03:02:03.675Z,26.77
2018-10-17T03:04:32.387Z,26.47
2018-10-17T03:07:01.234Z,26.03
2018-10-17T03:09:29.907Z,24.20
2018-10-17T03:11:58.617Z,25.87
2018-10-17T03:14:27.310Z,26.93
2018-10-17T03:16:56.046Z,26.63
2018-10-17T03:19:24.751Z,25.60
2018-10-17T03:21:53.507Z,27.13
2018-10-17T03:24:22.207Z,27.07
2018-10-17T03:26:50.940Z,25.00
2018-10-17T03:29:19.734Z,25.70
2018-10-17T03:31:48.362Z,26.30
2018-10-17T03:34:17.069Z,25.83
2018-10-17T03:36:45.731Z,25.53
2018-10-17T03:39:14.397Z,25.10
2018-10-17T03:41:43.130Z,26.27
2018-10-17T03:44:11.799Z,29.93
2018-10-17T03:46:40.532Z,29.50
2018-10-17T03:49:09.376Z,24.97
2018-10-17T03:51:38.082Z,23.30
2018-10-17T03:54:06.881Z,26.13
2018-10-17T03:56:35.623Z,32.90
2018-10-17T03:59:04.536Z,32.00
2018-10-17T04:01:33.307Z,23.63
2018-10-17T04:04:02.018Z,21.50
2018-10-17T04:06:30.705Z,20.13
2018-10-17T04:08:59.460Z,20.47
2018-10-17T04:11:28.521Z,20.43
2018-10-17T04:13:57.343Z,18.17
2018-10-17T04:16:26.578Z,22.40
2018-10-17T04:18:55.346Z,26.80
2018-10-17T04:21:24.175Z,29.47
2018-10-17T04:23:52.856Z,32.00
2018-10-17T04:26:21.593Z,28.77
2018-10-17T04:28:50.291Z,29.57
2018-10-17T04:31:19.093Z,30.50
2018-10-17T04:33:47.791Z,30.50
2018-10-17T04:36:16.623Z,29.63
2018-10-17T04:38:52.006Z,25.43
2018-10-17T04:41:20.783Z,24.67
2018-10-17T04:43:49.496Z,25.10
2018-10-17T04:46:18.198Z,25.47
2018-10-17T04:48:46.909Z,24.43
2018-10-17T04:51:15.618Z,22.47
2018-10-17T04:53:44.369Z,22.73
2018-10-17T04:56:13.035Z,22.70
2018-10-17T04:58:41.779Z,24.17
2018-10-17T05:01:10.481Z,22.20
2018-10-17T05:03:39.150Z,24.87
2018-10-17T05:06:07.823Z,24.47
2018-10-17T05:08:36.557Z,22.13
2018-10-17T05:11:05.992Z,23.20
2018-10-17T05:13:34.872Z,20.93
2018-10-17T05:16:03.533Z,22.47
2018-10-17T05:18:32.201Z,25.10
2018-10-17T05:21:00.910Z,22.27
2018-10-17T05:23:29.586Z,20.67
2018-10-17T05:25:58.308Z,19.60
2018-10-17T05:28:26.939Z,21.70
2018-10-17T05:30:55.697Z,24.67
2018-10-17T05:33:24.380Z,26.07
2018-10-17T05:35:53.125Z,24.23
2018-10-17T05:38:21.860Z,25.23
2018-10-17T05:40:50.555Z,24.27
2018-10-17T05:43:19.259Z,23.83
2018-10-17T05:45:48.022Z,23.97
2018-10-17T05:48:16.761Z,23.43
2018-10-17T05:50:45.462Z,24.77
2018-10-17T05:53:14.216Z,25.30
2018-10-17T05:55:42.877Z,26.03
2018-10-17T05:58:11.627Z,24.43
2018-10-17T06:00:40.360Z,26.10
2018-10-17T06:03:09.056Z,26.30
2018-10-17T06:05:37.811Z,26.10
2018-10-17T06:08:06.506Z,27.10
2018-10-17T06:10:35.181Z,24.90
2018-10-17T06:13:03.965Z,27.87
2018-10-17T06:15:32.728Z,26.13
2018-10-17T06:18:02.333Z,25.63
2018-10-17T06:20:31.039Z,25.63
2018-10-17T06:22:59.837Z,24.90
2018-10-17T06:25:28.502Z,25.10
2018-10-17T06:27:57.231Z,24.50
2018-10-17T06:30:25.940Z,24.80
2018-10-17T06:32:54.690Z,24.63
2018-10-17T06:35:23.392Z,23.90
2018-10-17T06:37:52.271Z,25.03
2018-10-17T06:40:21.007Z,23.27
2018-10-17T06:42:49.691Z,23.83
2018-10-17T06:45:18.435Z,23.93
2018-10-17T06:47:47.155Z,22.57
2018-10-17T06:50:15.852Z,22.90
2018-10-17T06:52:44.676Z,22.53
2018-10-17T06:55:13.387Z,22.07
2018-10-17T06:57:42.132Z,22.33
2018-10-17T07:00:11.599Z,21.50
2018-10-17T07:02:40.375Z,23.43
2018-10-17T07:05:10.368Z,21.83
2018-10-17T07:07:39.434Z,21.87
2018-10-17T07:10:08.162Z,21.33
2018-10-17T07:12:36.883Z,21.93
2018-10-17T07:15:06.983Z,21.67
2018-10-17T07:17:36.264Z,21.90
2018-10-17T07:20:05.716Z,22.20
2018-10-17T07:22:34.481Z,21.10
2018-10-17T07:25:03.233Z,21.67
2018-10-17T07:27:31.968Z,25.63
2018-10-17T07:30:00.687Z,21.97
2018-10-17T07:32:29.408Z,22.63
2018-10-17T07:34:58.087Z,21.80
2018-10-17T07:37:26.855Z,21.83
2018-10-17T07:40:02.232Z,20.10
2018-10-17T07:42:30.956Z,21.30
2018-10-17T07:44:59.671Z,18.57
2018-10-17T07:47:28.407Z,18.20
2018-10-17T07:49:57.139Z,17.63
2018-10-17T07:52:25.868Z,17.00
2018-10-17T07:54:54.602Z,16.63
2018-10-17T07:57:23.327Z,17.40
2018-10-17T07:59:52.134Z,16.37
2018-10-17T08:02:20.839Z,16.07
2018-10-17T08:04:49.860Z,16.80
2018-10-17T08:07:18.681Z,16.53
2018-10-17T08:09:47.464Z,16.23
2018-10-17T08:12:16.300Z,15.10
2018-10-17T08:14:44.906Z,16.13
2018-10-17T08:17:13.633Z,16.37
2018-10-17T08:19:42.358Z,16.00
2018-10-17T08:22:11.075Z,16.17
2018-10-17T08:24:39.976Z,15.73
2018-10-17T08:27:08.849Z,16.00
2018-10-17T08:29:37.522Z,15.90
2018-10-17T08:32:07.275Z,15.53
2018-10-17T08:34:36.303Z,15.90
2018-10-17T08:37:05.602Z,16.33
2018-10-17T08:39:33.845Z,17.27
2018-10-17T08:42:03.097Z,16.70
2018-10-17T08:44:31.885Z,17.27
2018-10-17T08:47:01.078Z,17.23
2018-10-17T08:49:30.319Z,17.83
2018-10-17T08:51:59.565Z,16.73
2018-10-17T08:54:28.601Z,16.97
2018-10-17T08:56:57.839Z,18.03
2018-10-17T08:59:26.607Z,17.33
2018-10-17T09:01:55.486Z,15.73
2018-10-17T09:04:24.290Z,16.10
2018-10-17T09:06:52.993Z,16.33
2018-10-17T09:09:21.740Z,15.77
2018-10-17T09:11:50.466Z,16.00
2018-10-17T09:14:19.314Z,15.93
2018-10-17T09:16:48.126Z,15.10
2018-10-17T09:27:48.806Z,15.00
2018-10-17T09:30:17.577Z,15.33
2018-10-17T09:32:46.221Z,13.93
2018-10-17T09:35:15.043Z,13.50
2018-10-17T09:37:43.688Z,14.00
2018-10-17T09:40:12.493Z,13.27
2018-10-17T09:42:41.687Z,13.73
2018-10-17T09:45:11.099Z,13.27
2018-10-17T09:47:39.925Z,14.83
2018-10-17T09:50:09.661Z,14.23
2018-10-17T09:52:38.299Z,13.97
2018-10-17T10:29:43.595Z,16.30
2018-10-17T10:32:12.287Z,16.37
2018-10-17T10:34:40.976Z,16.70
2018-10-17T10:37:09.926Z,16.80
2018-10-17T10:39:38.888Z,17.60
2018-10-17T10:42:07.797Z,17.30
2018-10-17T10:44:37.196Z,17.07
2018-10-17T10:47:06.164Z,16.90
2018-10-17T10:49:35.535Z,17.17
2018-10-17T10:52:04.544Z,17.60
2018-10-17T10:54:33.254Z,17.80
2018-10-17T10:57:02.003Z,16.70
2018-10-17T10:59:30.853Z,17.67
2018-10-17T11:01:59.459Z,18.27
2018-10-17T11:04:28.194Z,17.07
2018-10-17T11:06:56.931Z,16.00
2018-10-17T11:09:25.579Z,16.97
2018-10-17T11:11:54.215Z,17.20
2018-10-17T11:14:23.007Z,16.03
2018-10-17T11:16:51.665Z,17.47
2018-10-17T11:19:20.348Z,17.23
2018-10-17T11:21:49.167Z,17.50
2018-10-17T11:24:17.919Z,16.43
2018-10-17T11:26:46.784Z,17.20
2018-10-17T11:29:15.494Z,11.30
2018-10-17T11:31:44.203Z,12.17
2018-10-17T11:34:12.968Z,11.70
2018-10-17T11:36:41.692Z,12.00
2018-10-17T11:39:11.207Z,10.80
2018-10-17T11:41:40.184Z,10.87
2018-10-17T11:44:08.836Z,10.70
2018-10-17T11:46:37.562Z,10.50
2018-10-17T11:49:06.272Z,10.97
2018-10-17T11:51:34.931Z,11.20
2018-10-17T11:54:03.706Z,10.90
2018-10-17T11:56:32.566Z,10.97
2018-10-17T11:59:01.280Z,10.93
2018-10-17T12:01:29.997Z,11.53
2018-10-17T12:03:58.844Z,10.87
2018-10-17T12:06:27.606Z,11.23
2018-10-17T12:08:56.198Z,11.83
2018-10-17T12:11:24.931Z,11.73
2018-10-17T12:13:53.658Z,13.80
2018-10-17T12:16:22.288Z,13.00
2018-10-17T12:18:51.257Z,13.03
2018-10-17T12:21:19.980Z,14.50
2018-10-17T12:23:48.825Z,13.40
2018-10-17T12:26:17.505Z,13.43
2018-10-17T12:28:46.217Z,12.17
2018-10-17T12:31:14.858Z,12.20
2018-10-17T12:33:43.550Z,11.50
2018-10-17T12:36:12.252Z,10.60
2018-10-17T12:38:41.002Z,10.53
2018-10-17T12:41:09.942Z,10.87
2018-10-17T12:43:38.467Z,10.30
2018-10-17T12:46:07.146Z,10.13
2018-10-17T12:48:35.854Z,11.77
2018-10-17T12:51:04.730Z,10.93
2018-10-17T12:53:33.431Z,10.17
2018-10-17T12:56:02.079Z,11.13
2018-10-17T12:58:30.717Z,11.20
2018-10-17T13:00:59.418Z,10.10
2018-10-17T13:03:28.109Z,11.53
2018-10-17T13:05:56.760Z,10.17
2018-10-17T13:08:25.444Z,10.03
2018-10-17T13:10:54.148Z,10.57
2018-10-17T13:13:22.890Z,11.60
2018-10-17T13:15:51.598Z,11.00
2018-10-17T13:18:20.294Z,10.50
2018-10-17T13:20:48.958Z,10.47
2018-10-17T13:23:17.739Z,10.77
2018-10-17T13:25:46.484Z,11.50
2018-10-17T13:28:15.158Z,10.73
2018-10-17T13:30:43.856Z,12.00
2018-10-17T13:33:12.535Z,11.53
2018-10-17T13:35:41.181Z,11.73
2018-10-17T13:38:09.861Z,11.97
2018-10-17T13:40:38.499Z,10.63
2018-10-17T13:43:07.243Z,11.30
2018-10-17T13:45:35.885Z,10.93
2018-10-17T13:48:04.627Z,11.43
2018-10-17T13:50:33.302Z,10.80
2018-10-17T13:53:02.068Z,11.70
2018-10-17T13:55:30.900Z,11.17
2018-10-17T13:57:59.683Z,10.93
2018-10-17T14:00:28.355Z,11.83
2018-10-17T14:02:57.088Z,11.30
2018-10-17T14:05:25.861Z,11.43
2018-10-17T14:07:54.565Z,11.30
2018-10-17T14:10:23.268Z,12.07
2018-10-17T14:12:51.928Z,10.57
2018-10-17T14:15:20.588Z,9.83
2018-10-17T14:17:49.323Z,10.87
2018-10-17T14:20:17.982Z,9.60
2018-10-17T14:22:46.690Z,10.50
2018-10-17T14:25:15.388Z,10.70
2018-10-17T14:27:44.083Z,10.57
2018-10-17T14:30:12.893Z,10.80
2018-10-17T14:32:41.523Z,11.00
2018-10-17T14:35:11.475Z,11.17
2018-10-17T14:37:40.266Z,11.27
2018-10-17T14:40:09.007Z,9.77
2018-10-17T14:42:37.689Z,10.00
2018-10-17T14:45:08.344Z,10.70
2018-10-17T14:47:37.088Z,10.00
2018-10-17T14:50:06.072Z,9.80
2018-10-17T14:52:34.851Z,10.53
2018-10-17T14:55:03.782Z,10.70
2018-10-17T14:57:32.414Z,10.93
2018-10-17T15:00:01.102Z,10.13
2018-10-17T15:02:45.994Z,10.67
2018-10-17T15:05:14.747Z,10.80
2018-10-17T15:07:43.837Z,10.03
2018-10-17T15:10:12.499Z,9.73
2018-10-17T15:12:41.225Z,10.27
2018-10-17T15:15:11.739Z,11.23
2018-10-17T15:17:40.610Z,10.77
2018-10-17T15:20:12.931Z,10.20
2018-10-17T15:22:41.624Z,11.00
2018-10-17T15:25:10.328Z,10.47
2018-10-17T15:27:39.032Z,10.70
2018-10-17T15:30:08.216Z,10.67
2018-10-17T15:32:37.295Z,10.90
2018-10-17T15:35:07.019Z,10.17
2018-10-17T15:37:35.675Z,10.30
2018-10-17T15:40:04.431Z,10.43
2018-10-17T15:42:33.116Z,9.87
2018-10-17T15:45:01.856Z,11.60
2018-10-17T15:47:30.511Z,11.90
2018-10-17T15:49:59.230Z,14.00
2018-10-17T15:52:27.968Z,12.87
2018-10-17T15:54:57.829Z,12.67
2018-10-17T15:57:26.624Z,13.87
2018-10-17T15:59:55.535Z,13.67
2018-10-17T16:02:24.415Z,13.87
2018-10-17T16:04:53.313Z,13.97
2018-10-17T16:07:28.583Z,15.27
2018-10-17T16:09:57.302Z,15.47
2018-10-17T16:12:26.027Z,15.37
2018-10-17T16:14:54.840Z,15.53
2018-10-17T16:17:23.589Z,16.87
2018-10-17T16:19:52.325Z,19.70
2018-10-17T16:22:21.106Z,18.67
2018-10-17T16:24:49.885Z,18.60
2018-10-17T16:27:18.899Z,18.30
2018-10-17T16:29:47.617Z,17.73
2018-10-17T16:32:16.392Z,18.10
2018-10-17T16:34:45.046Z,17.93
2018-10-17T16:37:13.782Z,19.23
2018-10-17T16:39:42.724Z,19.50
2018-10-17T16:42:11.567Z,19.73
2018-10-17T16:44:40.289Z,19.30
2018-10-17T16:47:08.963Z,21.10
2018-10-17T16:49:37.701Z,20.80
2018-10-17T16:52:06.438Z,21.30
2018-10-17T16:54:35.249Z,20.13
2018-10-17T16:57:04.016Z,19.40
2018-10-17T16:59:32.746Z,21.67
2018-10-17T17:02:01.475Z,22.27
2018-10-17T17:04:30.287Z,23.10
2018-10-17T17:06:58.944Z,21.87
2018-10-17T17:09:37.702Z,22.77
2018-10-17T17:12:07.411Z,22.10
2018-10-17T17:14:36.428Z,22.83
2018-10-17T17:17:05.251Z,24.20
2018-10-17T17:19:34.021Z,23.27
2018-10-17T17:22:03.055Z,22.60
2018-10-17T17:24:31.903Z,21.40
2018-10-17T17:27:00.719Z,22.40
2018-10-17T17:29:29.451Z,23.83
2018-10-17T17:31:58.188Z,24.63
2018-10-17T17:34:26.895Z,23.90
2018-10-17T17:36:55.592Z,25.50
2018-10-17T17:39:24.295Z,25.47
2018-10-17T17:41:53.291Z,25.90
2018-10-17T17:44:22.062Z,25.30
2018-10-17T17:46:50.796Z,24.23
2018-10-17T17:49:19.491Z,25.30
2018-10-17T17:51:48.278Z,25.23
2018-10-17T17:54:17.046Z,24.50
2018-10-17T17:56:45.763Z,25.43
2018-10-17T17:59:14.443Z,25.40
2018-10-17T18:01:43.186Z,25.90
2018-10-17T18:04:12.079Z,25.50
2018-10-17T18:06:40.806Z,24.80
2018-10-17T18:09:11.102Z,26.13
2018-10-17T18:11:39.875Z,25.73
2018-10-17T18:14:08.651Z,26.30
2018-10-17T18:16:37.368Z,26.00
2018-10-17T18:19:06.150Z,26.10
2018-10-17T18:21:34.889Z,25.63
2018-10-17T18:24:03.691Z,27.40
2018-10-17T18:26:32.450Z,27.90
2018-10-17T18:29:01.176Z,27.30
2018-10-17T18:31:29.976Z,29.93
2018-10-17T18:33:58.705Z,29.27
2018-10-17T18:36:27.360Z,29.23
2018-10-17T18:38:56.048Z,30.77
2018-10-17T18:41:24.757Z,22.13
2018-10-17T18:43:53.474Z,21.70
2018-10-17T18:46:22.139Z,22.17
2018-10-17T18:48:50.804Z,24.63
2018-10-17T18:51:19.521Z,25.33
2018-10-17T18:53:48.290Z,23.03
2018-10-17T18:56:17.042Z,23.43
2018-10-17T18:58:45.728Z,25.57
2018-10-17T19:01:14.448Z,27.80
2018-10-17T19:03:43.110Z,28.87
2018-10-17T19:06:11.836Z,24.20
2018-10-17T19:08:40.505Z,23.07
2018-10-17T19:11:09.258Z,24.33
2018-10-17T19:13:38.008Z,29.00
2018-10-17T19:16:06.944Z,29.07
2018-10-17T19:18:35.649Z,29.00
2018-10-17T19:21:04.495Z,29.10
2018-10-17T19:23:33.121Z,27.20
2018-10-17T19:26:01.870Z,24.73
2018-10-17T19:28:30.633Z,27.30
2018-10-17T19:30:59.372Z,30.30
2018-10-17T19:33:28.107Z,30.73
2018-10-17T19:35:56.908Z,34.63
2018-10-17T19:38:25.569Z,32.93
2018-10-17T19:40:54.311Z,28.27
2018-10-17T19:43:23.040Z,31.37
2018-10-17T19:45:51.825Z,36.00
2018-10-17T19:48:20.558Z,30.60
2018-10-17T19:50:49.262Z,37.70
2018-10-17T19:53:17.993Z,38.60
2018-10-17T19:55:46.808Z,37.50
2018-10-17T19:58:15.581Z,37.60
2018-10-17T20:00:44.364Z,37.60
2018-10-17T20:03:13.190Z,38.37
2018-10-17T20:05:41.880Z,37.83
2018-10-17T20:08:10.568Z,37.50
2018-10-17T20:10:39.372Z,37.87
2018-10-17T20:13:08.129Z,39.43
2018-10-17T20:15:36.837Z,36.63
2018-10-17T20:18:05.657Z,31.40
2018-10-17T20:20:34.350Z,25.63
2018-10-17T20:23:03.079Z,28.83
2018-10-17T20:25:31.787Z,33.50
2018-10-17T20:28:00.492Z,35.27
2018-10-17T20:30:35.979Z,37.57
2018-10-17T20:33:05.177Z,37.17
2018-10-17T20:35:33.771Z,39.60
2018-10-17T20:38:02.518Z,31.83
2018-10-17T20:40:31.227Z,31.30
2018-10-17T20:43:00.014Z,29.83
2018-10-17T20:45:28.720Z,30.10
2018-10-17T20:47:57.463Z,32.17
2018-10-17T20:50:26.176Z,31.53
2018-10-17T20:52:54.828Z,31.37
2018-10-17T20:55:23.548Z,42.27
2018-10-17T20:57:52.263Z,43.30
2018-10-17T21:00:20.957Z,38.97
2018-10-17T21:02:49.822Z,43.20
2018-10-17T21:05:18.553Z,39.70
2018-10-17T21:07:47.399Z,39.23
2018-10-17T21:10:16.143Z,35.53
2018-10-17T21:12:44.862Z,35.63
2018-10-17T21:15:13.586Z,39.83
2018-10-17T21:17:42.270Z,37.70
2018-10-17T21:20:11.138Z,23.47
2018-10-17T21:22:39.857Z,22.03
2018-10-17T21:25:08.774Z,23.07
2018-10-17T21:27:37.529Z,30.87
2018-10-17T21:30:07.621Z,31.73
2018-10-17T21:32:36.318Z,35.10
2018-10-17T21:35:05.887Z,37.07
2018-10-17T21:37:34.639Z,34.57
2018-10-17T21:40:05.117Z,33.77
2018-10-17T21:42:33.846Z,36.43
2018-10-17T21:45:02.617Z,52.37
2018-10-17T21:47:31.460Z,72.97
2018-10-17T21:50:00.210Z,77.20
2018-10-17T21:52:29.023Z,64.63
2018-10-17T21:54:57.723Z,55.60
2018-10-17T21:57:26.488Z,48.00
2018-10-17T21:59:55.175Z,51.70
2018-10-17T22:02:24.139Z,64.07
2018-10-17T22:04:52.860Z,71.50
2018-10-17T22:07:21.582Z,69.53
2018-10-17T22:09:50.378Z,72.73
2018-10-17T22:12:19.109Z,47.53
2018-10-17T22:14:47.778Z,29.03
2018-10-17T22:17:20.695Z,23.77
2018-10-17T22:19:49.594Z,31.23
2018-10-17T22:22:18.223Z,47.17
2018-10-17T22:24:46.861Z,48.60
2018-10-17T22:27:15.551Z,44.23
2018-10-17T22:29:44.444Z,44.27
2018-10-17T22:32:13.236Z,43.13
2018-10-17T22:34:41.855Z,41.60
2018-10-17T22:37:10.547Z,40.47
2018-10-17T22:39:39.249Z,42.63
2018-10-17T22:42:07.952Z,44.43
2018-10-17T22:44:36.666Z,40.33
2018-10-17T22:47:06.152Z,26.13
2018-10-17T22:49:34.892Z,21.53
2018-10-17T22:52:03.585Z,21.70
2018-10-17T22:54:32.295Z,28.30
2018-10-17T22:57:00.992Z,28.60
2018-10-17T22:59:30.006Z,31.90
2018-10-17T23:01:58.832Z,30.40
2018-10-17T23:04:27.483Z,32.80
2018-10-17T23:06:56.191Z,33.60
2018-10-17T23:09:24.937Z,33.83
2018-10-17T23:11:53.635Z,32.87
2018-10-17T23:14:22.934Z,29.23
2018-10-17T23:16:51.679Z,30.33
2018-10-17T23:19:20.400Z,29.47
2018-10-17T23:21:49.124Z,33.57
2018-10-17T23:24:17.860Z,30.80
2018-10-17T23:26:46.592Z,30.50
2018-10-17T23:29:15.272Z,32.90
2018-10-17T23:31:44.108Z,42.57
2018-10-17T23:34:12.811Z,43.07
2018-10-17T23:36:41.488Z,41.13
2018-10-17T23:39:10.513Z,40.67
2018-10-17T23:41:40.051Z,38.60
2018-10-17T23:44:08.832Z,40.77
2018-10-17T23:46:37.606Z,40.30
2018-10-17T23:49:06.454Z,41.87
2018-10-17T23:51:35.148Z,40.00
2018-10-17T23:54:03.901Z,37.53
2018-10-17T23:56:32.668Z,36.73
2018-10-17T23:59:01.464Z,39.30
